createdAt,value
2022-12-20T00:00:24.149Z,12.40
2022-12-20T00:02:52.964Z,11.43
2022-12-20T00:05:23.682Z,13.07
2022-12-20T00:07:54.162Z,14.30
2022-12-20T00:10:23.983Z,11.90
2022-12-20T00:12:52.989Z,13.10
2022-12-20T00:15:24.085Z,14.23
2022-12-20T00:17:54.071Z,12.30
2022-12-20T00:20:24.532Z,11.83
2022-12-20T00:22:53.871Z,15.07
2022-12-20T00:25:24.624Z,15.13
2022-12-20T00:27:54.836Z,15.70
2022-12-20T00:30:25.738Z,13.27
2022-12-20T00:32:54.705Z,11.83
2022-12-20T00:35:24.409Z,13.63
2022-12-20T00:37:55.170Z,17.07
2022-12-20T00:40:25.239Z,18.20
2022-12-20T00:42:53.768Z,15.93
2022-12-20T00:45:25.835Z,19.17
2022-12-20T00:47:55.598Z,23.47
2022-12-20T00:50:25.659Z,23.07
2022-12-20T00:52:56.351Z,21.27
2022-12-20T00:55:26.864Z,15.90
2022-12-20T00:57:56.518Z,15.60
2022-12-20T01:00:27.877Z,15.87
2022-12-20T01:02:58.532Z,15.67
2022-12-20T01:05:28.953Z,14.73
2022-12-20T01:07:58.901Z,14.30
2022-12-20T01:10:28.943Z,15.47
2022-12-20T01:12:58.033Z,15.27
2022-12-20T01:15:28.144Z,13.90
2022-12-20T01:17:58.575Z,14.70
2022-12-20T01:20:28.104Z,13.30
2022-12-20T01:22:56.879Z,15.30
2022-12-20T01:25:25.303Z,14.83
2022-12-20T01:27:55.261Z,14.90
2022-12-20T01:30:25.464Z,14.13
2022-12-20T01:32:57.048Z,12.27
2022-12-20T01:35:27.448Z,14.37
2022-12-20T01:37:56.879Z,13.83
2022-12-20T01:40:27.155Z,14.83
2022-12-20T01:42:56.990Z,14.20
2022-12-20T01:45:31.267Z,14.47
2022-12-20T01:48:03.683Z,14.10
2022-12-20T01:50:34.221Z,13.97
2022-12-20T01:53:05.550Z,14.00
2022-12-20T01:55:36.956Z,15.00
2022-12-20T01:58:11.651Z,14.57
2022-12-20T02:00:44.863Z,13.70
2022-12-20T02:03:19.112Z,13.10
2022-12-20T02:05:49.700Z,14.43
2022-12-20T02:08:21.989Z,13.07
2022-12-20T02:11:37.371Z,13.27
2022-12-20T02:14:21.404Z,14.53
2022-12-20T02:17:02.139Z,11.77
2022-12-20T02:20:19.519Z,14.40
2022-12-20T02:23:18.283Z,16.90
2022-12-20T02:26:06.774Z,17.00
2022-12-20T02:29:09.656Z,16.23
2022-12-20T02:31:48.936Z,17.13
2022-12-20T02:34:21.744Z,16.17
2022-12-20T02:36:51.822Z,18.57
2022-12-20T02:39:22.492Z,14.73
2022-12-20T02:42:00.352Z,17.40
2022-12-20T02:44:51.170Z,17.53
2022-12-20T02:47:28.656Z,15.07
2022-12-20T02:50:00.884Z,17.50
2022-12-20T02:52:33.967Z,19.03
2022-12-20T02:55:06.659Z,16.37
2022-12-20T02:57:53.422Z,16.17
2022-12-20T03:00:34.389Z,16.70
2022-12-20T03:03:25.496Z,17.67
2022-12-20T03:05:58.017Z,15.90
2022-12-20T03:08:28.449Z,15.20
2022-12-20T03:10:58.777Z,15.10
2022-12-20T03:13:28.040Z,14.13
2022-12-20T03:15:57.588Z,15.80
2022-12-20T03:18:28.771Z,15.70
2022-12-20T03:20:59.932Z,15.83
2022-12-20T03:23:29.557Z,15.20
2022-12-20T03:25:59.102Z,15.50
2022-12-20T03:28:28.607Z,15.90
2022-12-20T03:30:58.371Z,17.40
2022-12-20T03:33:29.959Z,15.43
2022-12-20T03:36:00.336Z,15.00
2022-12-20T03:38:29.938Z,14.33
2022-12-20T03:41:00.035Z,12.10
2022-12-20T03:43:30.001Z,13.27
2022-12-20T03:46:00.123Z,13.73
2022-12-20T03:48:30.815Z,12.73
2022-12-20T03:51:01.369Z,10.37
2022-12-20T03:53:30.717Z,10.17
2022-12-20T03:56:01.639Z,11.40
2022-12-20T03:58:31.656Z,10.50
2022-12-20T04:01:03.786Z,11.23
2022-12-20T04:03:35.738Z,11.60
2022-12-20T04:06:05.815Z,11.47
2022-12-20T04:08:36.725Z,12.27
2022-12-20T04:11:18.457Z,12.57
2022-12-20T04:13:50.219Z,13.43
2022-12-20T04:16:22.706Z,13.37
2022-12-20T04:18:53.768Z,13.03
2022-12-20T04:21:25.389Z,10.37
2022-12-20T04:23:55.888Z,12.40
2022-12-20T04:26:25.518Z,12.47
2022-12-20T04:28:55.804Z,13.07
2022-12-20T04:31:25.228Z,13.67
2022-12-20T04:33:57.152Z,13.30
2022-12-20T04:36:26.873Z,13.23
2022-12-20T04:38:57.895Z,13.00
2022-12-20T04:41:28.735Z,13.97
2022-12-20T04:44:00.524Z,13.47
2022-12-20T04:46:31.583Z,11.77
2022-12-20T04:49:03.450Z,12.63
2022-12-20T04:51:34.566Z,10.93
2022-12-20T04:54:03.687Z,11.90
2022-12-20T04:56:33.900Z,11.17
2022-12-20T04:59:02.740Z,12.80
2022-12-20T05:01:31.982Z,11.83
2022-12-20T05:04:03.502Z,12.30
2022-12-20T05:06:34.743Z,13.70
2022-12-20T05:09:05.109Z,12.77
2022-12-20T05:11:35.780Z,12.03
2022-12-20T05:14:05.737Z,12.80
2022-12-20T05:16:35.107Z,12.20
2022-12-20T05:19:06.248Z,13.00
2022-12-20T05:21:53.026Z,11.83
2022-12-20T05:24:40.406Z,11.73
2022-12-20T05:27:10.497Z,12.13
2022-12-20T05:29:40.968Z,11.67
2022-12-20T05:32:09.715Z,12.07
2022-12-20T05:34:41.246Z,12.20
2022-12-20T05:37:10.772Z,11.30
2022-12-20T05:39:40.658Z,12.37
2022-12-20T05:42:10.752Z,12.93
2022-12-20T05:44:40.207Z,10.27
2022-12-20T05:47:09.784Z,11.07
2022-12-20T05:49:41.377Z,9.20
2022-12-20T05:52:12.608Z,10.30
2022-12-20T05:54:42.165Z,10.03
2022-12-20T05:57:11.665Z,8.60
2022-12-20T05:59:42.561Z,9.37
2022-12-20T06:02:13.582Z,9.00
2022-12-20T06:04:45.491Z,9.47
2022-12-20T06:07:14.862Z,8.93
2022-12-20T06:09:45.501Z,9.40
2022-12-20T06:12:15.807Z,8.07
2022-12-20T06:14:46.422Z,7.87
2022-12-20T06:17:15.500Z,6.60
2022-12-20T06:19:48.262Z,7.20
2022-12-20T06:22:17.773Z,8.00
2022-12-20T06:24:48.796Z,6.90
2022-12-20T06:27:19.362Z,8.43
2022-12-20T06:29:52.078Z,6.30
2022-12-20T06:32:21.509Z,6.13
2022-12-20T06:34:53.545Z,6.67
2022-12-20T06:37:24.085Z,6.30
2022-12-20T06:39:53.776Z,6.00
2022-12-20T06:42:24.196Z,5.73
2022-12-20T06:44:53.562Z,4.97
2022-12-20T06:47:21.968Z,4.70
2022-12-20T06:49:54.032Z,4.90
2022-12-20T06:52:24.014Z,4.93
2022-12-20T06:54:55.069Z,4.50
2022-12-20T06:57:24.678Z,4.30
2022-12-20T06:59:55.127Z,4.53
2022-12-20T07:02:27.592Z,5.00
2022-12-20T07:05:00.577Z,3.80
2022-12-20T07:07:30.004Z,4.23
2022-12-20T07:10:00.059Z,4.23
2022-12-20T07:12:31.031Z,3.77
2022-12-20T07:15:01.102Z,3.70
2022-12-20T07:17:30.931Z,3.30
2022-12-20T07:20:06.261Z,3.17
2022-12-20T07:22:39.256Z,3.87
2022-12-20T07:25:11.254Z,3.90
2022-12-20T07:27:42.100Z,3.80
2022-12-20T07:30:12.443Z,3.17
2022-12-20T07:32:42.907Z,3.47
2022-12-20T07:35:15.112Z,3.67
2022-12-20T07:37:45.648Z,4.00
2022-12-20T07:40:17.844Z,3.20
2022-12-20T07:42:49.054Z,3.33
2022-12-20T07:45:19.196Z,3.47
2022-12-20T07:47:49.754Z,3.17
2022-12-20T07:50:19.721Z,3.03
2022-12-20T07:52:51.799Z,3.53
2022-12-20T07:55:22.569Z,3.10
2022-12-20T07:57:58.013Z,3.33
2022-12-20T08:00:28.602Z,3.73
2022-12-20T08:03:04.972Z,3.30
2022-12-20T08:05:41.744Z,4.03
2022-12-20T08:08:13.031Z,3.40
2022-12-20T08:10:43.476Z,3.53
2022-12-20T08:13:13.094Z,3.40
2022-12-20T08:15:42.926Z,3.63
2022-12-20T08:18:12.314Z,3.33
2022-12-20T08:20:42.924Z,3.83
2022-12-20T08:23:13.411Z,3.60
2022-12-20T08:25:43.030Z,3.53
2022-12-20T08:28:13.391Z,3.40
2022-12-20T08:30:42.939Z,3.90
2022-12-20T08:33:13.429Z,4.50
2022-12-20T08:35:45.556Z,4.60
2022-12-20T08:38:16.677Z,3.60
2022-12-20T08:40:47.573Z,4.83
2022-12-20T08:43:18.108Z,4.00
2022-12-20T08:45:48.104Z,3.80
2022-12-20T08:48:18.247Z,3.90
2022-12-20T08:50:49.941Z,4.60
2022-12-20T08:53:19.539Z,4.77
2022-12-20T08:55:49.974Z,3.90
2022-12-20T08:58:19.603Z,3.80
2022-12-20T09:00:48.988Z,4.13
2022-12-20T09:03:18.605Z,4.67
2022-12-20T09:05:50.795Z,5.37
2022-12-20T09:08:20.236Z,4.90
2022-12-20T09:10:49.907Z,4.17
2022-12-20T09:13:20.082Z,5.40
2022-12-20T09:15:50.018Z,3.93
2022-12-20T09:18:19.023Z,4.80
2022-12-20T09:20:49.754Z,5.93
2022-12-20T09:23:20.635Z,6.30
2022-12-20T09:25:53.876Z,5.63
2022-12-20T09:28:23.933Z,4.83
2022-12-20T09:30:54.556Z,5.33
2022-12-20T09:33:24.431Z,5.33
2022-12-20T09:35:55.935Z,4.80
2022-12-20T09:38:26.065Z,4.90
2022-12-20T09:41:00.594Z,4.87
2022-12-20T09:43:30.582Z,4.20
2022-12-20T09:46:03.456Z,4.40
2022-12-20T09:48:39.221Z,4.27
2022-12-20T09:51:33.457Z,5.73
2022-12-20T09:54:20.306Z,4.43
2022-12-20T09:57:03.172Z,4.90
2022-12-20T09:59:40.426Z,4.50
2022-12-20T10:02:44.384Z,5.17
2022-12-20T10:05:04.636Z,5.00
2022-12-20T10:07:48.750Z,5.27
2022-12-20T10:10:52.921Z,5.27
2022-12-20T10:13:52.234Z,4.53
2022-12-20T10:16:40.402Z,6.67
2022-12-20T10:19:39.357Z,4.70
2022-12-20T10:22:18.607Z,5.27
2022-12-20T10:25:00.197Z,6.00
2022-12-20T10:27:30.149Z,5.20
2022-12-20T10:30:00.162Z,4.03
2022-12-20T10:32:31.104Z,5.00
2022-12-20T10:35:26.516Z,4.70
2022-12-20T10:38:10.231Z,4.47
2022-12-20T10:41:19.425Z,4.40
2022-12-20T10:43:45.787Z,4.67
2022-12-20T10:46:18.621Z,4.87
2022-12-20T10:48:51.491Z,4.70
2022-12-20T10:51:23.905Z,4.50
2022-12-20T10:54:00.048Z,4.50
2022-12-20T10:56:33.765Z,4.20
2022-12-20T10:59:25.042Z,4.20
2022-12-20T11:01:55.596Z,4.53
2022-12-20T11:04:31.707Z,4.27
2022-12-20T11:07:03.333Z,5.00
2022-12-20T11:09:35.667Z,5.30
2022-12-20T11:12:15.810Z,5.13
2022-12-20T11:14:47.576Z,4.87
2022-12-20T11:17:30.372Z,4.60
2022-12-20T11:20:27.164Z,4.40
2022-12-20T11:23:17.130Z,5.03
2022-12-20T11:26:14.131Z,4.40
2022-12-20T11:29:09.410Z,4.23
2022-12-20T11:31:57.909Z,3.57
2022-12-20T11:34:41.647Z,3.47
2022-12-20T11:37:49.589Z,3.90
2022-12-20T11:40:33.309Z,4.27
2022-12-20T11:44:07.975Z,4.27
2022-12-20T11:46:58.582Z,4.63
2022-12-20T11:50:04.641Z,4.70
2022-12-20T11:52:44.749Z,5.40
2022-12-20T11:55:23.992Z,6.00
2022-12-20T11:58:18.684Z,5.87
2022-12-20T12:00:58.027Z,5.13
2022-12-20T12:03:36.498Z,5.57
2022-12-20T12:06:12.857Z,4.90
2022-12-20T12:08:51.905Z,4.10
2022-12-20T12:14:31.098Z,4.90
2022-12-20T12:17:10.697Z,4.40
2022-12-20T12:19:49.001Z,4.40
2022-12-20T12:22:28.833Z,3.20
2022-12-20T12:25:05.198Z,3.20
2022-12-20T12:27:36.007Z,4.23
2022-12-20T12:30:07.542Z,3.57
2022-12-20T12:32:44.549Z,3.83
2022-12-20T12:35:47.585Z,4.17
2022-12-20T12:39:02.302Z,3.67
2022-12-20T12:42:13.279Z,3.40
2022-12-20T12:44:53.298Z,4.40
2022-12-20T12:47:36.848Z,3.87
2022-12-20T12:50:18.223Z,3.77
2022-12-20T12:52:55.509Z,4.03
2022-12-20T12:55:45.561Z,3.83
2022-12-20T12:58:38.223Z,4.13
2022-12-20T13:01:13.188Z,4.10
2022-12-20T13:04:10.118Z,4.17
2022-12-20T13:07:29.133Z,5.30
2022-12-20T13:10:00.203Z,3.33
2022-12-20T13:12:59.451Z,3.63
2022-12-20T13:16:12.089Z,2.90
2022-12-20T13:19:05.924Z,3.43
2022-12-20T13:21:41.703Z,2.90
2022-12-20T13:24:56.413Z,2.60
2022-12-20T13:27:35.241Z,3.80
2022-12-20T13:30:36.401Z,2.87
2022-12-20T13:33:24.821Z,3.33
2022-12-20T13:36:18.871Z,3.00
2022-12-20T13:39:01.391Z,2.80
2022-12-20T13:41:47.044Z,2.70
2022-12-20T13:44:42.203Z,2.87
2022-12-20T13:47:41.708Z,2.83
2022-12-20T13:50:39.383Z,3.30
2022-12-20T13:53:19.965Z,2.97
2022-12-20T13:55:51.158Z,3.13
2022-12-20T13:58:26.114Z,2.77
2022-12-20T14:01:06.666Z,2.70
2022-12-20T14:03:44.650Z,2.53
2022-12-20T14:06:22.926Z,2.50
2022-12-20T14:08:56.439Z,2.87
2022-12-20T14:11:28.459Z,2.77
2022-12-20T14:14:00.702Z,2.50
2022-12-20T14:16:33.061Z,2.83
2022-12-20T14:19:06.374Z,3.00
2022-12-20T14:21:40.260Z,2.80
2022-12-20T14:24:17.469Z,2.80
2022-12-20T14:26:49.847Z,3.43
2022-12-20T14:29:21.757Z,2.80
2022-12-20T14:31:54.450Z,3.03
2022-12-20T14:34:30.164Z,3.23
2022-12-20T14:37:33.944Z,2.77
2022-12-20T14:40:18.244Z,4.83
2022-12-20T14:42:48.432Z,4.30
2022-12-20T14:45:27.648Z,5.20
2022-12-20T14:48:03.739Z,5.27
2022-12-20T14:50:36.607Z,4.03
2022-12-20T14:53:20.656Z,5.60
2022-12-20T14:55:51.621Z,3.60
2022-12-20T14:58:31.293Z,4.33
2022-12-20T15:01:04.078Z,4.70
2022-12-20T15:03:35.172Z,4.87
2022-12-20T15:06:06.432Z,4.67
2022-12-20T15:08:40.572Z,4.83
2022-12-20T15:11:24.053Z,4.93
2022-12-20T15:13:56.840Z,3.83
2022-12-20T15:16:30.105Z,3.47
2022-12-20T15:19:04.499Z,3.33
2022-12-20T15:21:37.374Z,4.37
2022-12-20T15:24:13.260Z,4.47
2022-12-20T15:26:44.407Z,3.90
2022-12-20T15:29:20.116Z,3.30
2022-12-20T15:31:51.429Z,3.50
2022-12-20T15:34:30.125Z,3.43
2022-12-20T15:37:01.085Z,3.60
2022-12-20T15:39:31.150Z,3.60
2022-12-20T15:42:05.526Z,3.43
2022-12-20T15:44:37.722Z,4.00
2022-12-20T15:47:07.031Z,3.30
2022-12-20T15:49:37.794Z,3.17
2022-12-20T15:52:07.948Z,4.60
2022-12-20T15:54:38.782Z,4.97
2022-12-20T15:57:13.732Z,5.33
2022-12-20T16:00:01.750Z,4.83
2022-12-20T16:02:34.975Z,4.20
2022-12-20T16:05:06.868Z,4.40
2022-12-20T16:07:36.067Z,4.13
2022-12-20T16:10:10.487Z,3.70
2022-12-20T16:12:39.453Z,4.23
2022-12-20T16:15:20.724Z,5.03
2022-12-20T16:17:50.703Z,4.30
2022-12-20T16:20:23.321Z,4.35
2022-12-20T16:22:53.110Z,4.70
2022-12-20T16:25:32.522Z,4.10
2022-12-20T16:28:02.902Z,3.50
2022-12-20T16:30:31.586Z,4.60
2022-12-20T16:33:00.846Z,4.97
2022-12-20T16:35:36.572Z,4.40
2022-12-20T16:38:07.162Z,4.38
2022-12-20T16:40:37.140Z,4.20
2022-12-20T16:43:07.841Z,5.00
2022-12-20T16:45:37.648Z,4.97
2022-12-20T16:48:10.022Z,3.87
2022-12-20T16:50:43.960Z,5.10
2022-12-20T16:53:17.171Z,4.10
2022-12-20T16:55:48.278Z,4.97
2022-12-20T16:58:18.875Z,4.40
2022-12-20T17:00:48.515Z,4.97
2022-12-20T17:03:19.385Z,4.30
2022-12-20T17:05:50.804Z,4.73
2022-12-20T17:11:17.123Z,5.60
2022-12-20T17:13:48.302Z,4.50
2022-12-20T17:16:19.048Z,5.07
2022-12-20T17:18:51.767Z,4.90
2022-12-20T17:21:33.549Z,6.50
2022-12-20T17:24:04.054Z,7.27
2022-12-20T17:26:34.176Z,4.67
2022-12-20T17:29:03.268Z,5.57
2022-12-20T17:31:36.838Z,5.20
2022-12-20T17:34:07.793Z,6.30
2022-12-20T17:36:38.641Z,4.87
2022-12-20T17:39:08.315Z,5.60
2022-12-20T17:41:38.668Z,5.30
2022-12-20T17:44:08.786Z,6.17
2022-12-20T17:46:38.358Z,5.70
2022-12-20T17:49:08.587Z,7.50
2022-12-20T17:51:38.735Z,5.90
2022-12-20T17:54:15.113Z,5.80
2022-12-20T17:56:45.427Z,4.80
2022-12-20T17:59:15.539Z,5.20
2022-12-20T18:01:45.689Z,5.33
2022-12-20T18:04:17.552Z,5.57
2022-12-20T18:06:49.108Z,4.57
2022-12-20T18:09:21.117Z,6.43
2022-12-20T18:11:50.661Z,5.80
2022-12-20T18:14:19.839Z,5.60
2022-12-20T18:16:49.174Z,5.80
2022-12-20T18:19:20.620Z,6.80
2022-12-20T18:21:51.477Z,7.70
2022-12-20T18:24:21.931Z,7.10
2022-12-20T18:26:50.775Z,6.23
2022-12-20T18:29:20.860Z,7.90
2022-12-20T18:31:49.772Z,7.00
2022-12-20T18:34:18.258Z,7.60
2022-12-20T18:36:48.014Z,11.40
2022-12-20T18:39:19.628Z,6.57
2022-12-20T18:41:49.556Z,7.13
2022-12-20T18:44:18.557Z,6.80
2022-12-20T18:46:48.396Z,6.33
2022-12-20T18:49:18.190Z,9.90
2022-12-20T18:51:47.872Z,8.80
2022-12-20T18:54:18.786Z,8.50
2022-12-20T18:56:49.246Z,8.93
2022-12-20T18:59:18.528Z,8.00
2022-12-20T19:01:48.951Z,9.77
2022-12-20T19:04:24.530Z,9.13
2022-12-20T19:06:53.926Z,12.50
2022-12-20T19:09:25.954Z,7.07
2022-12-20T19:11:57.718Z,8.17
2022-12-20T19:14:27.903Z,9.47
2022-12-20T19:16:57.620Z,6.70
2022-12-20T19:19:27.291Z,6.63
2022-12-20T19:21:56.323Z,10.20
2022-12-20T19:24:27.388Z,8.70
2022-12-20T19:26:58.265Z,10.27
2022-12-20T19:29:27.456Z,10.30
2022-12-20T19:31:58.260Z,8.73
2022-12-20T19:34:27.466Z,9.67
2022-12-20T19:36:58.273Z,9.17
2022-12-20T19:39:31.033Z,8.20
2022-12-20T19:42:23.194Z,8.70
2022-12-20T19:44:50.632Z,9.10
2022-12-20T19:47:22.420Z,9.70
2022-12-20T19:49:52.823Z,10.17
2022-12-20T19:52:28.208Z,10.50
2022-12-20T19:54:59.489Z,8.83
2022-12-20T19:57:29.886Z,11.17
2022-12-20T19:59:59.299Z,12.87
2022-12-20T20:02:29.687Z,9.50
2022-12-20T20:04:59.988Z,8.20
2022-12-20T20:07:30.728Z,9.03
2022-12-20T20:10:00.771Z,8.40
2022-12-20T20:12:31.930Z,12.10
2022-12-20T20:15:01.853Z,8.13
2022-12-20T20:17:31.548Z,8.07
2022-12-20T20:20:01.244Z,7.10
2022-12-20T20:22:31.943Z,7.80
2022-12-20T20:25:02.652Z,7.40
2022-12-20T20:27:32.231Z,7.63
2022-12-20T20:30:01.572Z,7.20
2022-12-20T20:32:32.001Z,8.23
2022-12-20T20:35:01.712Z,6.57
2022-12-20T20:37:31.761Z,5.43
2022-12-20T20:40:04.428Z,5.50
2022-12-20T20:42:34.964Z,6.00
2022-12-20T20:45:05.220Z,5.67
2022-12-20T20:47:34.632Z,5.30
2022-12-20T20:50:04.446Z,5.00
2022-12-20T20:52:34.958Z,4.80
2022-12-20T20:55:07.554Z,5.43
2022-12-20T20:57:36.272Z,5.47
2022-12-20T21:00:07.852Z,5.20
2022-12-20T21:02:37.352Z,4.90
2022-12-20T21:05:59.225Z,4.53
2022-12-20T21:08:00.567Z,4.63
2022-12-20T21:10:32.583Z,4.80
2022-12-20T21:13:03.521Z,4.87
2022-12-20T21:15:33.893Z,4.33
2022-12-20T21:18:03.123Z,4.50
2022-12-20T21:20:32.593Z,6.63
2022-12-20T21:23:03.439Z,5.63
2022-12-20T21:25:36.020Z,7.50
2022-12-20T21:28:05.937Z,6.90
2022-12-20T21:30:35.719Z,7.30
2022-12-20T21:33:05.463Z,4.80
2022-12-20T21:35:34.960Z,4.30
2022-12-20T21:38:04.807Z,3.93
2022-12-20T21:40:36.058Z,4.80
2022-12-20T21:43:04.962Z,4.20
2022-12-20T21:45:35.912Z,4.83
2022-12-20T21:48:06.620Z,5.53
2022-12-20T21:50:36.503Z,4.43
2022-12-20T21:53:07.198Z,4.33
2022-12-20T21:55:38.743Z,3.70
2022-12-20T21:58:07.758Z,3.70
2022-12-20T22:00:38.529Z,3.37
2022-12-20T22:03:08.410Z,3.40
2022-12-20T22:05:38.509Z,3.87
2022-12-20T22:08:09.216Z,3.73
2022-12-20T22:10:40.608Z,3.27
2022-12-20T22:13:10.783Z,3.17
2022-12-20T22:15:40.578Z,5.73
2022-12-20T22:18:10.937Z,3.87
2022-12-20T22:20:40.561Z,3.50
2022-12-20T22:23:10.229Z,3.03
2022-12-20T22:25:40.977Z,2.60
2022-12-20T22:28:09.804Z,2.67
2022-12-20T22:30:42.991Z,2.50
2022-12-20T22:33:12.792Z,2.73
2022-12-20T22:35:43.384Z,2.43
2022-12-20T22:38:12.977Z,2.80
2022-12-20T22:40:45.200Z,2.90
2022-12-20T22:43:14.297Z,2.80
2022-12-20T22:45:45.357Z,5.13
2022-12-20T22:48:14.528Z,4.40
2022-12-20T22:50:44.599Z,2.63
2022-12-20T22:53:15.252Z,3.63
2022-12-20T22:55:47.006Z,2.57
2022-12-20T22:58:17.240Z,2.93
2022-12-20T23:00:47.031Z,3.53
2022-12-20T23:03:17.476Z,5.00
2022-12-20T23:05:54.876Z,2.87
2022-12-20T23:08:27.166Z,2.40
2022-12-20T23:11:15.544Z,2.63
2022-12-20T23:14:03.112Z,3.27
2022-12-20T23:16:33.305Z,3.10
2022-12-20T23:19:03.665Z,2.77
2022-12-20T23:21:50.662Z,3.23
2022-12-20T23:24:20.891Z,5.90
2022-12-20T23:26:52.433Z,2.73
2022-12-20T23:29:22.627Z,2.93
2022-12-20T23:31:52.657Z,3.27
2022-12-20T23:34:22.001Z,2.90
2022-12-20T23:36:52.124Z,2.60
2022-12-20T23:39:22.399Z,3.50
2022-12-20T23:41:52.710Z,3.17
2022-12-20T23:44:21.980Z,2.67
2022-12-20T23:46:50.969Z,2.37
2022-12-20T23:49:21.304Z,2.97
2022-12-20T23:51:51.161Z,3.83
2022-12-20T23:54:22.115Z,2.83
2022-12-20T23:56:53.231Z,4.53
2022-12-20T23:59:22.858Z,2.80
